createdAt,value
2023-05-19T00:02:21.093Z,16.93
2023-05-19T00:04:49.719Z,16.82
2023-05-19T00:07:20.613Z,16.76
2023-05-19T00:09:48.369Z,16.70
2023-05-19T00:12:15.799Z,16.66
2023-05-19T00:14:43.174Z,16.58
2023-05-19T00:17:10.634Z,16.62
2023-05-19T00:19:38.242Z,16.63
2023-05-19T00:22:05.554Z,16.57
2023-05-19T00:24:33.262Z,16.49
2023-05-19T00:27:01.328Z,16.49
2023-05-19T00:29:29.221Z,16.53
2023-05-19T00:31:56.831Z,16.48
2023-05-19T00:34:24.057Z,16.48
2023-05-19T00:36:51.275Z,16.50
2023-05-19T00:39:18.329Z,16.52
2023-05-19T00:41:45.627Z,16.49
2023-05-19T00:44:12.692Z,16.43
2023-05-19T00:46:39.841Z,16.39
2023-05-19T00:49:06.818Z,16.34
2023-05-19T00:51:33.887Z,16.28
2023-05-19T00:54:01.317Z,16.28
2023-05-19T00:56:28.662Z,16.28
2023-05-19T00:58:56.046Z,16.27
2023-05-19T01:01:23.551Z,16.14
2023-05-19T01:03:51.618Z,16.18
2023-05-19T01:06:22.310Z,16.13
2023-05-19T01:08:51.799Z,16.11
2023-05-19T01:11:19.466Z,16.08
2023-05-19T01:13:46.635Z,16.02
2023-05-19T01:16:28.377Z,16.03
2023-05-19T01:19:29.272Z,16.00
2023-05-19T01:22:02.542Z,15.89
2023-05-19T01:24:47.973Z,15.89
2023-05-19T01:27:33.968Z,15.86
2023-05-19T01:30:20.074Z,15.78
2023-05-19T01:32:50.201Z,15.51
2023-05-19T01:35:17.630Z,15.49
2023-05-19T01:37:46.340Z,15.44
2023-05-19T01:40:13.657Z,15.30
2023-05-19T01:42:41.698Z,15.24
2023-05-19T01:45:12.288Z,15.15
2023-05-19T01:47:43.398Z,15.13
2023-05-19T01:50:11.231Z,14.98
2023-05-19T01:52:38.600Z,14.99
2023-05-19T01:55:06.630Z,14.98
2023-05-19T01:57:33.578Z,14.68
2023-05-19T02:00:25.563Z,14.65
2023-05-19T02:02:56.644Z,14.62
2023-05-19T02:05:31.770Z,14.57
2023-05-19T02:08:06.367Z,14.56
2023-05-19T02:10:37.565Z,14.46
2023-05-19T02:13:09.193Z,14.28
2023-05-19T02:15:42.827Z,14.23
2023-05-19T02:18:11.966Z,14.24
2023-05-19T02:20:40.077Z,14.10
2023-05-19T02:23:07.359Z,14.15
2023-05-19T02:25:34.962Z,14.17
2023-05-19T02:28:02.156Z,14.07
2023-05-19T02:30:32.290Z,14.08
2023-05-19T02:33:01.422Z,14.08
2023-05-19T02:35:28.623Z,14.05
2023-05-19T02:37:55.685Z,13.98
2023-05-19T02:40:23.113Z,13.96
2023-05-19T02:42:50.473Z,13.96
2023-05-19T02:45:17.709Z,13.84
2023-05-19T02:47:44.950Z,13.82
2023-05-19T02:50:12.010Z,13.82
2023-05-19T02:52:39.198Z,13.84
2023-05-19T02:55:06.680Z,13.79
2023-05-19T02:57:35.220Z,13.83
2023-05-19T03:00:02.810Z,13.78
2023-05-19T03:02:34.330Z,13.79
2023-05-19T03:05:03.787Z,13.64
2023-05-19T03:07:33.918Z,13.64
2023-05-19T03:10:03.950Z,13.63
2023-05-19T03:12:32.626Z,13.59
2023-05-19T03:15:00.372Z,13.60
2023-05-19T03:17:33.957Z,13.57
2023-05-19T03:20:01.755Z,13.50
2023-05-19T03:22:32.418Z,13.46
2023-05-19T03:25:00.029Z,13.44
2023-05-19T03:27:27.028Z,13.51
2023-05-19T03:29:54.914Z,13.52
2023-05-19T03:32:22.498Z,13.55
2023-05-19T03:34:50.877Z,13.49
2023-05-19T03:37:18.036Z,13.45
2023-05-19T03:39:45.566Z,13.50
2023-05-19T03:42:14.097Z,13.49
2023-05-19T03:44:41.311Z,13.53
2023-05-19T03:47:08.477Z,13.52
2023-05-19T03:49:54.073Z,13.51
2023-05-19T03:52:45.603Z,13.50
2023-05-19T03:55:24.260Z,13.46
2023-05-19T03:57:52.714Z,13.49
2023-05-19T04:00:20.408Z,13.50
2023-05-19T04:02:47.562Z,13.54
2023-05-19T04:05:14.993Z,13.54
2023-05-19T04:07:43.176Z,13.47
2023-05-19T04:10:10.564Z,13.58
2023-05-19T04:12:37.552Z,13.60
2023-05-19T04:15:06.114Z,13.54
2023-05-19T04:17:33.301Z,13.58
2023-05-19T04:20:00.339Z,13.56
2023-05-19T04:22:32.284Z,13.57
2023-05-19T04:25:00.305Z,13.62
2023-05-19T04:27:29.208Z,13.61
2023-05-19T04:29:56.313Z,13.55
2023-05-19T04:32:23.521Z,13.53
2023-05-19T04:34:51.881Z,13.58
2023-05-19T04:37:24.315Z,13.61
2023-05-19T04:39:52.378Z,13.62
2023-05-19T04:42:20.998Z,13.57
2023-05-19T04:44:51.970Z,13.60
2023-05-19T04:47:21.710Z,13.59
2023-05-19T04:49:49.565Z,13.57
2023-05-19T04:52:21.833Z,13.61
2023-05-19T04:54:48.984Z,13.60
2023-05-19T04:57:16.104Z,13.57
2023-05-19T04:59:43.098Z,13.48
2023-05-19T05:02:10.568Z,13.47
2023-05-19T05:04:40.669Z,13.39
2023-05-19T05:07:07.726Z,13.47
2023-05-19T05:09:34.967Z,13.47
2023-05-19T05:12:03.361Z,13.34
2023-05-19T05:14:31.039Z,13.35
2023-05-19T05:16:58.496Z,13.34
2023-05-19T05:19:26.511Z,13.18
2023-05-19T05:21:54.790Z,13.22
2023-05-19T05:24:22.066Z,13.24
2023-05-19T05:26:54.068Z,13.33
2023-05-19T05:29:21.517Z,13.43
2023-05-19T05:31:48.592Z,13.45
2023-05-19T05:34:15.901Z,13.49
2023-05-19T05:36:43.832Z,13.47
2023-05-19T05:39:10.966Z,13.46
2023-05-19T05:41:40.260Z,13.46
2023-05-19T05:44:11.245Z,13.47
2023-05-19T05:46:41.057Z,13.48
2023-05-19T05:49:08.589Z,13.53
2023-05-19T05:51:35.991Z,13.63
2023-05-19T05:54:06.247Z,13.72
2023-05-19T05:56:38.096Z,13.80
2023-05-19T05:59:08.026Z,13.82
2023-05-19T06:01:36.349Z,13.83
2023-05-19T06:04:05.554Z,13.83
2023-05-19T06:06:33.018Z,13.89
2023-05-19T06:09:02.171Z,13.96
2023-05-19T06:11:30.094Z,14.03
2023-05-19T06:13:59.095Z,14.13
2023-05-19T06:16:55.983Z,14.15
2023-05-19T06:19:25.466Z,14.18
2023-05-19T06:21:52.970Z,14.22
2023-05-19T06:24:20.047Z,14.34
2023-05-19T06:26:48.299Z,14.50
2023-05-19T06:29:17.467Z,14.56
2023-05-19T06:31:49.195Z,14.79
2023-05-19T06:34:17.822Z,14.89
2023-05-19T06:36:46.979Z,15.02
2023-05-19T06:39:14.798Z,15.22
2023-05-19T06:41:41.842Z,15.35
2023-05-19T06:44:09.366Z,15.54
2023-05-19T06:46:36.531Z,15.67
2023-05-19T06:49:04.527Z,15.72
2023-05-19T06:51:36.631Z,15.80
2023-05-19T06:54:04.622Z,15.88
2023-05-19T06:56:31.644Z,16.15
2023-05-19T06:58:58.735Z,16.33
2023-05-19T07:01:32.193Z,16.44
2023-05-19T07:03:59.806Z,16.53
2023-05-19T07:06:27.369Z,16.64
2023-05-19T07:08:54.582Z,16.54
2023-05-19T07:11:22.164Z,16.66
2023-05-19T07:13:49.533Z,16.66
2023-05-19T07:16:23.256Z,16.69
2023-05-19T07:18:50.638Z,16.69
2023-05-19T07:21:18.014Z,16.73
2023-05-19T07:23:45.092Z,16.68
2023-05-19T07:26:12.220Z,16.37
2023-05-19T07:28:41.421Z,16.25
2023-05-19T07:31:09.686Z,16.40
2023-05-19T07:33:36.955Z,16.37
2023-05-19T07:36:04.732Z,16.34
2023-05-19T07:38:34.636Z,16.09
2023-05-19T07:41:02.655Z,16.05
2023-05-19T07:43:29.823Z,16.26
2023-05-19T07:45:56.890Z,16.47
2023-05-19T07:48:25.856Z,16.71
2023-05-19T07:50:53.287Z,17.20
2023-05-19T07:53:20.945Z,17.65
2023-05-19T07:55:47.969Z,17.89
2023-05-19T07:58:15.733Z,18.20
2023-05-19T08:00:43.405Z,18.23
2023-05-19T08:03:10.799Z,19.19
2023-05-19T08:05:38.260Z,20.38
2023-05-19T08:08:06.116Z,21.55
2023-05-19T08:10:33.338Z,22.17
2023-05-19T08:13:00.603Z,22.45
2023-05-19T08:15:27.767Z,22.94
2023-05-19T08:17:55.054Z,23.67
2023-05-19T08:20:23.071Z,24.60
2023-05-19T08:22:50.306Z,25.36
2023-05-19T08:25:17.492Z,26.43
2023-05-19T08:27:44.515Z,26.76
2023-05-19T08:30:12.360Z,27.53
2023-05-19T08:32:39.727Z,28.22
2023-05-19T08:35:07.711Z,29.03
2023-05-19T08:37:37.270Z,28.94
2023-05-19T08:40:05.796Z,28.97
2023-05-19T08:42:34.046Z,29.99
2023-05-19T08:45:02.324Z,30.17
2023-05-19T08:47:33.496Z,30.84
2023-05-19T08:50:11.132Z,30.87
2023-05-19T08:53:03.206Z,31.20
2023-05-19T08:55:34.336Z,31.78
2023-05-19T08:58:04.532Z,32.38
2023-05-19T09:00:33.334Z,32.72
2023-05-19T09:05:34.123Z,32.27
2023-05-19T09:08:02.972Z,32.28
2023-05-19T09:10:30.082Z,32.36
2023-05-19T09:12:57.182Z,32.35
2023-05-19T09:15:28.464Z,32.48
2023-05-19T09:18:12.556Z,32.03
2023-05-19T09:20:44.807Z,31.98
2023-05-19T09:23:17.118Z,31.77
2023-05-19T09:25:53.046Z,31.54
2023-05-19T09:28:32.298Z,30.83
2023-05-19T09:31:12.447Z,31.33
2023-05-19T09:33:46.102Z,32.13
2023-05-19T09:36:14.015Z,32.18
2023-05-19T09:38:41.591Z,32.12
2023-05-19T09:41:09.804Z,32.71
2023-05-19T09:43:37.024Z,32.75
2023-05-19T09:46:11.242Z,32.79
2023-05-19T09:48:40.394Z,32.68
2023-05-19T09:51:11.124Z,32.49
2023-05-19T09:53:39.225Z,32.09
2023-05-19T09:56:08.995Z,31.23
2023-05-19T09:58:37.231Z,31.24
2023-05-19T10:01:05.503Z,31.49
2023-05-19T10:03:34.036Z,31.58
2023-05-19T10:06:02.134Z,31.36
2023-05-19T10:08:34.373Z,31.00
2023-05-19T10:11:02.631Z,30.85
2023-05-19T10:13:31.094Z,30.53
2023-05-19T10:15:59.914Z,29.81
2023-05-19T10:18:29.816Z,29.77
2023-05-19T10:20:58.302Z,29.54
2023-05-19T10:23:26.598Z,29.56
2023-05-19T10:25:57.872Z,29.46
2023-05-19T10:28:30.543Z,29.05
2023-05-19T10:31:01.136Z,28.60
2023-05-19T10:33:57.315Z,27.67
2023-05-19T10:36:39.320Z,27.18
2023-05-19T10:39:13.339Z,26.85
2023-05-19T10:42:38.337Z,26.11
2023-05-19T10:45:20.189Z,25.90
2023-05-19T10:47:47.537Z,25.19
2023-05-19T10:50:14.885Z,24.69
2023-05-19T10:52:41.859Z,24.47
2023-05-19T10:55:48.025Z,24.38
2023-05-19T10:58:15.139Z,24.38
2023-05-19T11:00:42.210Z,24.73
2023-05-19T11:03:16.704Z,24.88
2023-05-19T11:05:46.963Z,25.02
2023-05-19T11:08:14.286Z,25.09
2023-05-19T11:10:46.271Z,24.93
2023-05-19T11:13:22.628Z,24.81
2023-05-19T11:15:50.266Z,24.69
2023-05-19T11:18:17.545Z,24.77
2023-05-19T11:20:55.580Z,24.75
2023-05-19T11:23:25.983Z,24.36
2023-05-19T11:25:56.217Z,24.28
2023-05-19T11:28:28.211Z,24.41
2023-05-19T11:30:57.895Z,24.59
2023-05-19T11:33:29.276Z,24.42
2023-05-19T11:36:00.587Z,23.81
2023-05-19T11:38:30.171Z,23.45
2023-05-19T11:40:57.823Z,23.59
2023-05-19T11:43:26.255Z,23.49
2023-05-19T11:45:56.554Z,23.39
2023-05-19T11:48:24.867Z,23.39
2023-05-19T11:50:52.706Z,23.51
2023-05-19T11:53:20.232Z,23.40
2023-05-19T11:55:48.905Z,23.31
2023-05-19T11:58:17.168Z,23.12
2023-05-19T12:00:48.626Z,23.01
2023-05-19T12:03:17.618Z,22.40
2023-05-19T12:05:48.520Z,22.55
2023-05-19T12:08:19.582Z,22.60
2023-05-19T12:10:53.107Z,22.63
2023-05-19T12:13:21.134Z,22.49
2023-05-19T12:15:50.769Z,22.45
2023-05-19T12:18:18.041Z,22.40
2023-05-19T12:20:45.217Z,22.57
2023-05-19T12:23:12.931Z,22.47
2023-05-19T12:25:40.068Z,22.20
2023-05-19T12:28:07.507Z,21.82
2023-05-19T12:30:35.489Z,21.68
2023-05-19T12:33:03.673Z,21.70
2023-05-19T12:35:34.574Z,21.69
2023-05-19T12:38:08.124Z,21.73
2023-05-19T12:40:36.769Z,21.60
2023-05-19T12:43:04.534Z,21.72
2023-05-19T12:45:40.044Z,21.57
2023-05-19T12:48:17.105Z,21.56
2023-05-19T12:50:48.677Z,21.56
2023-05-19T12:53:15.832Z,21.52
2023-05-19T12:55:45.061Z,21.56
2023-05-19T12:58:12.968Z,21.63
2023-05-19T13:00:45.444Z,21.07
2023-05-19T13:03:17.878Z,20.96
2023-05-19T13:05:51.167Z,20.89
2023-05-19T13:08:24.234Z,21.00
2023-05-19T13:10:51.316Z,21.07
2023-05-19T13:13:19.494Z,20.96
2023-05-19T13:15:50.974Z,20.94
2023-05-19T13:18:18.438Z,21.01
2023-05-19T13:20:47.081Z,21.09
2023-05-19T13:23:14.733Z,20.99
2023-05-19T13:25:43.305Z,20.97
2023-05-19T13:28:10.918Z,20.75
2023-05-19T13:30:39.669Z,20.77
2023-05-19T13:33:06.982Z,20.64
2023-05-19T13:35:37.635Z,20.50
2023-05-19T13:38:06.893Z,20.49
2023-05-19T13:40:35.268Z,20.59
2023-05-19T13:43:04.304Z,20.64
2023-05-19T13:45:31.400Z,20.75
2023-05-19T13:47:58.546Z,20.59
2023-05-19T13:50:25.862Z,20.56
2023-05-19T13:52:53.481Z,20.51
2023-05-19T13:55:20.830Z,20.18
2023-05-19T13:57:47.915Z,20.02
2023-05-19T14:00:15.505Z,20.00
2023-05-19T14:02:43.135Z,19.95
2023-05-19T14:05:10.613Z,19.84
2023-05-19T14:07:37.618Z,19.62
2023-05-19T14:10:06.898Z,19.64
2023-05-19T14:12:49.482Z,19.38
2023-05-19T14:15:22.837Z,19.29
2023-05-19T14:17:49.889Z,19.46
2023-05-19T14:20:17.065Z,19.30
2023-05-19T14:22:44.086Z,19.34
2023-05-19T14:25:11.468Z,19.43
2023-05-19T14:27:40.056Z,19.44
2023-05-19T14:30:09.249Z,19.49
2023-05-19T14:32:36.404Z,19.50
2023-05-19T14:35:04.256Z,19.55
2023-05-19T14:37:32.285Z,19.45
2023-05-19T14:39:59.947Z,19.51
2023-05-19T14:42:26.990Z,19.53
2023-05-19T14:44:54.167Z,19.40
2023-05-19T14:47:21.615Z,19.49
2023-05-19T14:49:48.861Z,19.55
2023-05-19T14:52:16.148Z,19.61
2023-05-19T14:54:43.166Z,19.66
2023-05-19T14:57:10.161Z,19.73
2023-05-19T14:59:38.105Z,19.59
2023-05-19T15:02:05.731Z,19.64
2023-05-19T15:04:32.687Z,19.64
2023-05-19T15:07:09.858Z,19.63
2023-05-19T15:09:37.905Z,19.41
2023-05-19T15:12:05.209Z,19.40
2023-05-19T15:14:32.268Z,19.38
2023-05-19T15:16:59.488Z,19.31
2023-05-19T15:19:26.808Z,19.19
2023-05-19T15:21:54.245Z,19.10
2023-05-19T15:24:21.590Z,18.84
2023-05-19T15:26:48.906Z,18.81
2023-05-19T15:29:15.944Z,18.78
2023-05-19T15:31:43.144Z,18.62
2023-05-19T15:34:10.442Z,18.59
2023-05-19T15:36:37.545Z,18.52
2023-05-19T15:39:05.174Z,18.46
2023-05-19T15:41:32.259Z,18.43
2023-05-19T15:44:02.743Z,18.35
2023-05-19T15:46:30.700Z,18.27
2023-05-19T15:48:58.277Z,18.15
2023-05-19T15:51:26.318Z,18.17
2023-05-19T15:53:53.433Z,18.21
2023-05-19T15:56:21.691Z,18.25
2023-05-19T15:58:49.272Z,18.25
2023-05-19T16:01:17.014Z,18.27
2023-05-19T16:03:47.903Z,18.17
2023-05-19T16:06:14.967Z,18.16
2023-05-19T16:08:42.067Z,18.10
2023-05-19T16:11:09.202Z,18.14
2023-05-19T16:13:36.463Z,18.03
2023-05-19T16:16:03.824Z,18.02
2023-05-19T16:18:31.016Z,18.07
2023-05-19T16:20:58.159Z,18.12
2023-05-19T16:23:25.408Z,18.14
2023-05-19T16:25:54.763Z,18.11
2023-05-19T16:28:24.475Z,18.05
2023-05-19T16:30:52.127Z,17.99
2023-05-19T16:33:19.497Z,17.95
2023-05-19T16:35:46.611Z,17.92
2023-05-19T16:38:13.841Z,17.91
2023-05-19T16:40:41.032Z,17.78
2023-05-19T16:43:08.167Z,17.72
2023-05-19T16:45:35.350Z,17.58
2023-05-19T16:48:02.794Z,17.53
2023-05-19T16:50:30.878Z,17.45
2023-05-19T16:52:57.981Z,17.32
2023-05-19T16:55:26.840Z,17.20
2023-05-19T16:57:54.153Z,17.05
2023-05-19T17:00:21.674Z,17.01
2023-05-19T17:02:49.003Z,16.94
2023-05-19T17:05:16.146Z,16.76
2023-05-19T17:07:43.099Z,16.75
2023-05-19T17:10:10.528Z,16.59
2023-05-19T17:12:37.723Z,16.54
2023-05-19T17:15:05.358Z,16.52
2023-05-19T17:17:32.505Z,16.44
2023-05-19T17:19:59.951Z,16.39
2023-05-19T17:22:28.254Z,16.23
2023-05-19T17:24:57.641Z,16.19
2023-05-19T17:27:25.079Z,16.14
2023-05-19T17:29:52.164Z,16.02
2023-05-19T17:32:22.246Z,15.97
2023-05-19T17:34:49.469Z,15.86
2023-05-19T17:37:19.114Z,15.80
2023-05-19T17:39:46.227Z,15.69
2023-05-19T17:42:13.246Z,15.69
2023-05-19T17:44:40.484Z,15.66
2023-05-19T17:47:08.261Z,15.64
2023-05-19T17:49:35.280Z,15.64
2023-05-19T17:52:02.665Z,15.59
2023-05-19T17:54:30.089Z,15.45
2023-05-19T17:56:58.865Z,15.42
2023-05-19T17:59:26.410Z,15.33
2023-05-19T18:01:53.953Z,15.26
2023-05-19T18:04:21.502Z,15.24
2023-05-19T18:06:51.520Z,15.17
2023-05-19T18:09:23.423Z,15.06
2023-05-19T18:11:50.462Z,14.97
2023-05-19T18:14:17.726Z,14.86
2023-05-19T18:16:44.812Z,14.78
2023-05-19T18:19:12.063Z,14.71
2023-05-19T18:21:39.345Z,14.59
2023-05-19T18:24:07.234Z,14.56
2023-05-19T18:26:34.517Z,14.46
2023-05-19T18:29:05.064Z,14.44
2023-05-19T18:31:32.477Z,14.37
2023-05-19T18:33:59.608Z,14.32
2023-05-19T18:36:26.731Z,14.23
2023-05-19T18:38:55.171Z,14.16
2023-05-19T18:41:22.331Z,14.16
2023-05-19T18:43:49.467Z,14.15
2023-05-19T18:46:19.925Z,14.10
2023-05-19T18:48:47.186Z,14.03
2023-05-19T18:51:15.949Z,14.00
2023-05-19T18:53:43.132Z,13.95
2023-05-19T18:56:11.729Z,13.89
2023-05-19T18:58:38.936Z,13.85
2023-05-19T19:01:06.117Z,13.81
2023-05-19T19:03:33.200Z,13.79
2023-05-19T19:06:00.644Z,13.71
2023-05-19T19:08:27.684Z,13.68
2023-05-19T19:10:59.334Z,13.63
2023-05-19T19:13:26.704Z,13.62
2023-05-19T19:15:53.864Z,13.60
2023-05-19T19:18:20.995Z,13.56
2023-05-19T19:20:48.240Z,13.50
2023-05-19T19:23:15.299Z,13.45
2023-05-19T19:25:42.623Z,13.42
2023-05-19T19:28:10.591Z,13.33
2023-05-19T19:30:37.757Z,13.30
2023-05-19T19:33:06.548Z,13.27
2023-05-19T19:35:33.961Z,13.25
2023-05-19T19:38:01.141Z,13.21
2023-05-19T19:40:29.385Z,13.18
2023-05-19T19:42:56.764Z,13.15
2023-05-19T19:45:23.835Z,13.10
2023-05-19T19:47:51.885Z,13.08
2023-05-19T19:50:19.077Z,13.01
2023-05-19T19:52:46.109Z,12.96
2023-05-19T19:55:13.372Z,12.90
2023-05-19T19:57:40.574Z,12.88
2023-05-19T20:00:08.650Z,12.84
2023-05-19T20:02:45.551Z,12.81
2023-05-19T20:05:18.834Z,12.74
2023-05-19T20:07:45.989Z,12.74
2023-05-19T20:10:13.026Z,12.69
2023-05-19T20:12:39.991Z,12.70
2023-05-19T20:15:08.353Z,12.61
2023-05-19T20:17:35.643Z,12.55
2023-05-19T20:20:08.096Z,12.54
2023-05-19T20:22:35.241Z,12.53
2023-05-19T20:25:02.268Z,12.49
2023-05-19T20:27:29.583Z,12.43
2023-05-19T20:29:56.794Z,12.40
2023-05-19T20:32:24.221Z,12.36
2023-05-19T20:34:51.401Z,12.33
2023-05-19T20:37:18.641Z,12.30
2023-05-19T20:39:45.775Z,12.26
2023-05-19T20:42:12.884Z,12.22
2023-05-19T20:44:39.825Z,12.21
2023-05-19T20:47:08.309Z,12.21
2023-05-19T20:49:35.676Z,12.23
2023-05-19T20:52:02.772Z,12.27
2023-05-19T20:54:30.063Z,12.33
2023-05-19T20:56:57.336Z,12.24
2023-05-19T20:59:24.635Z,12.47
2023-05-19T21:01:51.724Z,12.54
2023-05-19T21:04:19.084Z,12.59
2023-05-19T21:06:46.392Z,12.63
2023-05-19T21:09:14.828Z,12.69
2023-05-19T21:11:41.885Z,12.72
2023-05-19T21:14:09.322Z,12.73
2023-05-19T21:16:38.907Z,12.75
2023-05-19T21:19:07.032Z,12.76
2023-05-19T21:21:34.468Z,12.81
2023-05-19T21:24:02.262Z,12.81
2023-05-19T21:26:29.264Z,12.82
2023-05-19T21:28:56.772Z,12.74
2023-05-19T21:31:23.941Z,12.70
2023-05-19T21:33:51.234Z,12.70
2023-05-19T21:36:18.500Z,12.70
2023-05-19T21:38:46.165Z,12.63
2023-05-19T21:41:13.110Z,12.64
2023-05-19T21:43:42.098Z,12.60
2023-05-19T21:46:09.504Z,12.60
2023-05-19T21:48:36.634Z,12.61
2023-05-19T21:51:03.956Z,12.60
2023-05-19T21:53:32.706Z,12.59
2023-05-19T21:56:00.155Z,12.62
2023-05-19T21:58:27.457Z,12.60
2023-05-19T22:00:54.665Z,12.58
2023-05-19T22:03:22.166Z,12.51
2023-05-19T22:05:53.440Z,12.50
2023-05-19T22:08:22.380Z,12.49
2023-05-19T22:10:51.154Z,12.48
2023-05-19T22:13:19.270Z,12.49
2023-05-19T22:15:46.724Z,12.50
2023-05-19T22:18:13.810Z,12.52
2023-05-19T22:20:41.047Z,12.53
2023-05-19T22:23:08.208Z,12.51
2023-05-19T22:25:35.382Z,12.46
2023-05-19T22:28:02.540Z,12.47
2023-05-19T22:30:29.611Z,12.48
2023-05-19T22:32:56.665Z,12.47
2023-05-19T22:35:24.379Z,12.42
2023-05-19T22:37:51.485Z,12.40
2023-05-19T22:40:18.598Z,12.40
2023-05-19T22:42:45.650Z,12.44
2023-05-19T22:45:12.780Z,12.46
2023-05-19T22:47:40.159Z,12.46
2023-05-19T22:50:10.238Z,12.49
2023-05-19T22:52:37.589Z,12.48
2023-05-19T22:55:05.267Z,12.51
2023-05-19T22:57:32.649Z,12.53
2023-05-19T22:59:59.766Z,12.52
2023-05-19T23:02:26.955Z,12.51
2023-05-19T23:04:54.413Z,12.47
2023-05-19T23:07:21.677Z,12.43
2023-05-19T23:09:48.769Z,12.42
2023-05-19T23:12:16.653Z,12.42
2023-05-19T23:14:44.000Z,12.43
2023-05-19T23:17:11.142Z,12.42
2023-05-19T23:19:38.118Z,12.43
2023-05-19T23:22:05.346Z,12.46
2023-05-19T23:24:32.542Z,12.48
2023-05-19T23:27:01.100Z,12.48
2023-05-19T23:29:28.128Z,12.50
2023-05-19T23:31:56.122Z,12.49
2023-05-19T23:34:23.296Z,12.48
2023-05-19T23:36:50.423Z,12.40
2023-05-19T23:39:17.554Z,12.42
2023-05-19T23:41:44.648Z,12.35
2023-05-19T23:44:11.810Z,12.37
2023-05-19T23:46:38.815Z,12.40
2023-05-19T23:49:06.444Z,12.40
2023-05-19T23:51:33.476Z,12.33
2023-05-19T23:54:00.540Z,12.39
2023-05-19T23:56:27.736Z,12.31
2023-05-19T23:58:54.789Z,12.26
